Time;durP1;ratioP1;P1;durP2;ratioP2;P2;SDS_P1;SDS_P2;PMS_P1;PMS_P2;Temp;Humidity;BMP_temperature;BMP_pressure;BME280_temperature;BME280_humidity;BME280_pressure;Samples;Min_cycle;Max_cycle;Signal;HPM_P1;HPM_P2
2020/12/24 00:00:07;;;;;;;3.93;2.20;;;9.20;99.90;;;;;;471086;252;28584;-73
2020/12/24 00:02:08;;;;;;;11.70;2.33;;;9.20;99.90;;;;;;471009;252;28655;-75
2020/12/24 00:04:09;;;;;;;7.50;2.27;;;9.20;99.90;;;;;;471130;252;28692;-73
2020/12/24 00:06:10;;;;;;;5.90;2.07;;;9.10;99.90;;;;;;471110;252;28039;-73
2020/12/24 00:08:11;;;;;;;11.00;2.40;;;9.20;99.90;;;;;;471077;252;27878;-72
2020/12/24 00:10:13;;;;;;;7.60;1.97;;;9.10;99.90;;;;;;471029;252;27926;-72
2020/12/24 00:12:14;;;;;;;5.00;1.50;;;9.20;99.90;;;;;;471036;252;27560;-76
2020/12/24 00:14:15;;;;;;;9.77;2.10;;;9.10;99.90;;;;;;470953;252;27863;-73
2020/12/24 00:16:16;;;;;;;4.70;1.77;;;9.10;99.90;;;;;;470942;252;28083;-74
2020/12/24 00:18:18;;;;;;;8.43;2.07;;;9.00;99.90;;;;;;470966;252;28392;-77
2020/12/24 00:20:19;;;;;;;4.63;1.70;;;9.10;99.90;;;;;;470925;252;28205;-73
2020/12/24 00:22:20;;;;;;;5.50;2.00;;;9.00;99.90;;;;;;470952;252;28142;-73
2020/12/24 00:24:21;;;;;;;12.53;2.50;;;9.00;99.90;;;;;;470936;252;28131;-72
2020/12/24 00:26:23;;;;;;;4.97;1.70;;;8.90;99.90;;;;;;470932;252;27679;-75
2020/12/24 00:28:24;;;;;;;8.00;1.90;;;9.00;99.90;;;;;;470922;252;28048;-75
2020/12/24 00:30:25;;;;;;;5.90;2.13;;;9.10;99.90;;;;;;470869;252;28513;-72
2020/12/24 00:32:27;;;;;;;6.80;1.90;;;9.10;99.90;;;;;;470908;252;28464;-73
2020/12/24 00:34:28;;;;;;;5.70;1.87;;;9.10;99.90;;;;;;470948;252;28882;-73
2020/12/24 00:36:29;;;;;;;8.73;2.43;;;9.10;99.90;;;;;;470972;252;28723;-73
2020/12/24 00:38:30;;;;;;;5.67;2.00;;;9.00;99.90;;;;;;470956;252;28604;-73
2020/12/24 00:40:31;;;;;;;6.60;1.47;;;9.10;99.90;;;;;;470878;252;28653;-74
2020/12/24 00:42:33;;;;;;;4.13;1.60;;;9.00;99.90;;;;;;470892;252;28148;-73
2020/12/24 00:44:34;;;;;;;7.30;2.17;;;9.00;99.90;;;;;;470935;252;27822;-73
2020/12/24 00:46:35;;;;;;;4.17;1.80;;;9.00;99.90;;;;;;470964;252;28057;-73
2020/12/24 00:48:36;;;;;;;6.60;1.77;;;9.00;99.90;;;;;;470963;252;28054;-72
2020/12/24 00:50:38;;;;;;;2.97;1.80;;;9.00;99.90;;;;;;470891;252;28133;-75
2020/12/24 00:52:39;;;;;;;10.77;2.30;;;9.00;99.90;;;;;;470951;252;28083;-73
2020/12/24 00:54:44;;;;;;;6.17;2.20;;;9.10;99.90;;;;;;470975;252;28083;-76
2020/12/24 00:56:45;;;;;;;7.10;1.70;;;9.10;99.90;;;;;;470852;252;28533;-72
2020/12/24 00:58:47;;;;;;;8.40;2.10;;;9.10;99.90;;;;;;470956;252;28466;-73
2020/12/24 01:00:48;;;;;;;9.27;1.93;;;9.10;99.90;;;;;;471029;252;28442;-72
2020/12/24 01:02:49;;;;;;;5.50;1.80;;;9.10;99.90;;;;;;471180;252;28603;-72
2020/12/24 01:04:50;;;;;;;7.13;1.77;;;9.10;99.90;;;;;;471163;252;28019;-77
2020/12/24 01:06:52;;;;;;;4.70;1.73;;;9.00;99.90;;;;;;471118;252;28143;-73
2020/12/24 01:08:53;;;;;;;10.50;2.03;;;9.00;99.90;;;;;;471058;252;28066;-75
2020/12/24 01:10:54;;;;;;;13.07;1.80;;;8.90;99.90;;;;;;470952;252;27710;-72
2020/12/24 01:12:55;;;;;;;9.10;1.93;;;8.90;99.90;;;;;;470980;252;27930;-72
2020/12/24 01:14:57;;;;;;;10.30;2.13;;;8.80;99.90;;;;;;470997;252;28556;-76
2020/12/24 01:16:58;;;;;;;7.47;2.30;;;8.80;99.90;;;;;;471010;252;28024;-72
2020/12/24 01:18:59;;;;;;;8.00;2.37;;;8.70;99.90;;;;;;470995;252;28207;-74
2020/12/24 01:21:00;;;;;;;5.80;2.00;;;8.70;99.90;;;;;;470903;252;28191;-72
2020/12/24 01:23:03;;;;;;;4.50;1.90;;;8.70;99.90;;;;;;470945;252;27817;-73
2020/12/24 01:25:03;;;;;;;10.10;1.87;;;8.70;99.90;;;;;;470810;252;28087;-73
2020/12/24 01:27:04;;;;;;;3.90;2.00;;;8.70;99.90;;;;;;470914;252;28383;-72
2020/12/24 01:29:05;;;;;;;6.43;2.07;;;8.70;99.90;;;;;;470989;252;28572;-73
2020/12/24 01:31:07;;;;;;;6.17;2.00;;;8.70;99.90;;;;;;470886;247;28637;-73
2020/12/24 01:33:08;;;;;;;7.00;1.80;;;8.60;99.90;;;;;;470916;252;28389;-72
2020/12/24 01:35:09;;;;;;;6.23;1.80;;;8.60;99.90;;;;;;470927;252;28512;-74
2020/12/24 01:37:10;;;;;;;9.20;2.20;;;8.60;99.90;;;;;;470931;252;28482;-72
2020/12/24 01:39:12;;;;;;;5.00;2.10;;;8.60;99.90;;;;;;470976;252;28517;-74
2020/12/24 01:41:13;;;;;;;6.50;2.30;;;8.50;99.90;;;;;;470919;252;28647;-74
2020/12/24 01:43:14;;;;;;;16.27;2.30;;;8.60;99.90;;;;;;470920;252;28549;-74
2020/12/24 01:45:15;;;;;;;14.20;2.83;;;8.50;99.90;;;;;;470921;252;28118;-73
2020/12/24 01:47:17;;;;;;;11.27;2.07;;;8.60;99.90;;;;;;470974;252;27987;-72
2020/12/24 01:49:18;;;;;;;5.03;1.67;;;8.50;99.90;;;;;;470957;252;27916;-75
2020/12/24 01:51:19;;;;;;;8.67;1.70;;;8.50;99.90;;;;;;470897;252;27921;-74
2020/12/24 01:53:20;;;;;;;9.83;1.97;;;8.40;99.90;;;;;;470918;252;28054;-73
2020/12/24 01:55:22;;;;;;;11.37;2.53;;;8.40;99.90;;;;;;470936;252;28090;-73
2020/12/24 01:57:23;;;;;;;7.10;2.10;;;8.30;99.90;;;;;;470963;252;28499;-73
2020/12/24 01:59:24;;;;;;;5.20;1.67;;;8.30;99.90;;;;;;470984;252;27692;-73
2020/12/24 02:01:25;;;;;;;3.87;1.90;;;8.40;99.90;;;;;;470992;252;27575;-72
2020/12/24 02:03:27;;;;;;;9.77;2.23;;;8.40;99.90;;;;;;470979;252;27925;-74
2020/12/24 02:05:28;;;;;;;7.73;1.90;;;8.40;99.90;;;;;;471002;252;27916;-72
2020/12/24 02:07:29;;;;;;;7.10;2.37;;;8.40;99.90;;;;;;471036;247;28169;-73
2020/12/24 02:09:30;;;;;;;11.33;2.30;;;8.30;99.90;;;;;;471015;252;28107;-75
2020/12/24 02:11:32;;;;;;;6.70;1.47;;;8.20;99.90;;;;;;470914;252;28571;-72
2020/12/24 02:13:33;;;;;;;6.20;2.23;;;8.20;99.90;;;;;;470960;252;28404;-72
2020/12/24 02:15:34;;;;;;;9.90;2.30;;;8.20;99.90;;;;;;470953;252;28478;-73
2020/12/24 02:17:35;;;;;;;6.10;2.03;;;8.10;99.90;;;;;;471011;252;28393;-74
2020/12/24 02:19:37;;;;;;;5.97;1.93;;;8.00;99.90;;;;;;470948;252;28563;-74
2020/12/24 02:21:38;;;;;;;6.30;1.80;;;7.90;99.90;;;;;;470909;252;28153;-72
2020/12/24 02:23:39;;;;;;;8.30;2.00;;;7.90;99.90;;;;;;470977;252;28133;-73
2020/12/24 02:25:40;;;;;;;9.73;2.00;;;7.90;99.90;;;;;;470849;252;27889;-73
2020/12/24 02:27:42;;;;;;;7.67;2.20;;;7.90;99.90;;;;;;470953;252;27924;-75
2020/12/24 02:29:43;;;;;;;15.10;2.33;;;7.80;99.90;;;;;;470981;252;28113;-75
2020/12/24 02:31:44;;;;;;;7.03;1.70;;;7.70;99.90;;;;;;470918;252;28034;-74
2020/12/24 02:33:45;;;;;;;10.80;2.20;;;7.70;99.90;;;;;;470985;252;28406;-76
2020/12/24 02:35:47;;;;;;;4.23;1.80;;;7.80;99.90;;;;;;470978;252;27609;-73
2020/12/24 02:37:48;;;;;;;13.63;1.90;;;7.70;99.90;;;;;;470967;252;27943;-74
2020/12/24 02:39:49;;;;;;;5.93;1.73;;;7.70;99.90;;;;;;470935;252;28091;-75
2020/12/24 02:41:50;;;;;;;7.40;2.37;;;7.70;99.90;;;;;;471010;252;27767;-73
2020/12/24 02:43:52;;;;;;;13.03;2.50;;;7.70;99.90;;;;;;471149;252;28547;-75
2020/12/24 02:45:53;;;;;;;7.93;2.30;;;7.70;99.90;;;;;;471136;252;28382;-73
2020/12/24 02:47:54;;;;;;;6.53;1.97;;;7.70;99.90;;;;;;471107;252;28559;-73
2020/12/24 02:49:55;;;;;;;7.10;2.23;;;7.60;99.90;;;;;;471121;252;28364;-72
2020/12/24 02:51:57;;;;;;;5.50;2.13;;;7.60;99.90;;;;;;471083;252;28591;-73
2020/12/24 02:53:58;;;;;;;9.17;1.87;;;7.60;99.90;;;;;;471124;252;28065;-77
2020/12/24 02:55:59;;;;;;;8.70;2.50;;;7.60;99.90;;;;;;471079;252;27909;-72
2020/12/24 02:58:01;;;;;;;8.77;2.23;;;7.60;99.90;;;;;;470998;252;27802;-74
2020/12/24 03:00:02;;;;;;;10.27;2.17;;;7.60;99.90;;;;;;470977;252;27919;-77
2020/12/24 03:02:03;;;;;;;6.20;1.90;;;7.50;99.90;;;;;;470928;252;27929;-73
2020/12/24 03:04:04;;;;;;;9.37;2.93;;;7.50;99.90;;;;;;470950;252;27588;-73
2020/12/24 03:06:05;;;;;;;14.80;2.50;;;7.50;99.90;;;;;;470961;252;28246;-72
2020/12/24 03:08:07;;;;;;;9.10;2.20;;;7.50;99.90;;;;;;470937;252;27705;-73
2020/12/24 03:10:08;;;;;;;5.90;1.83;;;7.50;99.90;;;;;;470865;252;28085;-74
2020/12/24 03:12:11;;;;;;;6.60;1.87;;;7.50;99.90;;;;;;470976;252;28159;-73
2020/12/24 03:14:10;;;;;;;7.77;2.20;;;7.40;99.90;;;;;;470862;252;28680;-73
2020/12/24 03:16:14;;;;;;;6.50;2.40;;;7.40;99.90;;;;;;470951;252;28236;-71
2020/12/24 03:18:13;;;;;;;6.43;1.67;;;7.40;99.90;;;;;;470826;252;28531;-74
2020/12/24 03:20:14;;;;;;;7.10;2.10;;;7.40;99.90;;;;;;470882;252;28237;-76
2020/12/24 03:22:15;;;;;;;13.17;2.70;;;7.40;99.90;;;;;;470950;252;28612;-73
2020/12/24 03:24:17;;;;;;;7.80;1.80;;;7.30;99.90;;;;;;470983;252;27951;-72
2020/12/24 03:26:18;;;;;;;10.50;2.20;;;7.30;99.90;;;;;;471000;252;28836;-74
2020/12/24 03:28:19;;;;;;;12.00;2.10;;;7.30;99.90;;;;;;471010;252;28140;-72
2020/12/24 03:30:20;;;;;;;10.57;2.50;;;7.30;99.90;;;;;;470880;252;27868;-74
2020/12/24 03:32:22;;;;;;;13.10;2.70;;;7.40;99.90;;;;;;470942;252;28007;-75
2020/12/24 03:34:23;;;;;;;6.87;1.87;;;7.40;99.90;;;;;;470906;252;29071;-73
2020/12/24 03:36:24;;;;;;;11.60;2.47;;;7.40;99.90;;;;;;470913;252;28634;-75
2020/12/24 03:38:25;;;;;;;12.10;2.20;;;7.40;99.90;;;;;;470938;252;28084;-73
2020/12/24 03:40:27;;;;;;;5.37;1.80;;;7.50;99.90;;;;;;470894;252;28011;-74
2020/12/24 03:42:28;;;;;;;7.73;2.20;;;7.50;99.90;;;;;;470935;252;27909;-74
2020/12/24 03:44:29;;;;;;;13.37;1.73;;;7.60;99.90;;;;;;470918;252;28535;-73
2020/12/24 03:46:30;;;;;;;12.77;2.60;;;7.60;99.90;;;;;;470936;252;28676;-75
2020/12/24 03:48:32;;;;;;;11.33;2.77;;;7.60;99.90;;;;;;470962;252;29273;-73
2020/12/24 03:50:33;;;;;;;11.23;2.10;;;7.60;99.90;;;;;;470898;252;28546;-73
2020/12/24 03:52:34;;;;;;;5.50;1.80;;;7.70;99.90;;;;;;470926;252;28099;-74
2020/12/24 03:54:37;;;;;;;10.40;2.00;;;7.70;99.90;;;;;;470966;252;28130;-72
2020/12/24 03:56:38;;;;;;;9.53;1.83;;;7.70;99.90;;;;;;471046;252;27881;-72
2020/12/24 03:58:39;;;;;;;9.10;1.80;;;7.70;99.90;;;;;;471153;252;27909;-73
2020/12/24 04:00:40;;;;;;;11.97;2.47;;;7.70;99.90;;;;;;471107;252;28022;-73
2020/12/24 04:02:42;;;;;;;6.00;2.00;;;7.70;99.90;;;;;;471121;247;28568;-73
2020/12/24 04:04:43;;;;;;;4.10;1.87;;;7.80;99.90;;;;;;471153;252;29223;-73
2020/12/24 04:06:44;;;;;;;9.50;1.80;;;7.80;99.90;;;;;;471082;252;28418;-73
2020/12/24 04:08:45;;;;;;;9.10;2.33;;;7.70;99.90;;;;;;471040;252;28668;-74
2020/12/24 04:10:46;;;;;;;7.37;2.23;;;7.70;99.90;;;;;;470934;252;28695;-72
2020/12/24 04:12:48;;;;;;;8.43;2.10;;;7.70;99.90;;;;;;470926;252;28187;-73
2020/12/24 04:14:49;;;;;;;7.07;2.13;;;7.70;99.90;;;;;;470967;252;28122;-74
2020/12/24 04:16:50;;;;;;;9.70;2.10;;;7.70;99.90;;;;;;470976;252;28059;-72
2020/12/24 04:18:51;;;;;;;16.03;2.20;;;7.70;99.90;;;;;;470961;252;27919;-74
2020/12/24 04:20:53;;;;;;;6.63;1.70;;;7.70;99.90;;;;;;470933;252;27801;-73
2020/12/24 04:22:54;;;;;;;6.13;2.30;;;7.70;99.90;;;;;;470932;252;28029;-73
2020/12/24 04:24:55;;;;;;;4.93;1.77;;;7.60;99.90;;;;;;470946;252;28017;-74
2020/12/24 04:26:56;;;;;;;7.60;2.33;;;7.50;99.90;;;;;;470971;252;28011;-73
2020/12/24 04:28:58;;;;;;;10.60;2.23;;;7.60;99.90;;;;;;470943;252;28034;-75
2020/12/24 04:30:59;;;;;;;5.20;1.80;;;7.60;99.90;;;;;;470912;252;28049;-75
2020/12/24 04:33:00;;;;;;;7.50;1.93;;;7.60;99.90;;;;;;470954;252;27901;-74
2020/12/24 04:35:01;;;;;;;6.83;1.53;;;7.60;99.90;;;;;;470863;252;28165;-74
2020/12/24 04:37:03;;;;;;;6.87;2.20;;;7.60;99.90;;;;;;470917;252;29560;-73
2020/12/24 04:39:04;;;;;;;6.60;1.73;;;7.60;99.90;;;;;;470935;252;28493;-75
2020/12/24 04:41:05;;;;;;;5.77;1.67;;;7.60;99.90;;;;;;470878;252;28382;-73
2020/12/24 04:43:06;;;;;;;6.80;2.20;;;7.70;99.90;;;;;;470939;252;28543;-74
2020/12/24 04:45:08;;;;;;;11.10;2.10;;;7.70;99.90;;;;;;470984;252;28640;-73
2020/12/24 04:47:09;;;;;;;9.30;2.83;;;7.70;99.90;;;;;;470988;252;28048;-72
2020/12/24 04:49:10;;;;;;;6.90;1.83;;;7.70;99.90;;;;;;470976;252;28088;-73
2020/12/24 04:51:11;;;;;;;6.03;2.10;;;7.70;99.90;;;;;;470857;252;28055;-72
2020/12/24 04:53:13;;;;;;;5.17;1.67;;;7.80;99.90;;;;;;470905;252;28165;-74
2020/12/24 04:55:14;;;;;;;8.37;1.90;;;7.70;99.90;;;;;;470849;252;27963;-72
2020/12/24 04:57:15;;;;;;;12.80;2.30;;;7.70;99.90;;;;;;470907;252;28076;-76
2020/12/24 04:59:16;;;;;;;8.33;2.03;;;7.70;99.90;;;;;;470808;252;28012;-72
2020/12/24 05:01:19;;;;;;;11.43;2.03;;;7.80;99.90;;;;;;470757;252;28065;-73
2020/12/24 05:03:19;;;;;;;11.90;2.10;;;7.80;99.90;;;;;;470699;248;28047;-75
2020/12/24 05:05:20;;;;;;;5.80;2.23;;;7.80;99.90;;;;;;470860;252;29034;-72
2020/12/24 05:07:21;;;;;;;17.53;2.37;;;7.70;99.90;;;;;;470936;252;28110;-76
2020/12/24 05:09:23;;;;;;;7.97;1.70;;;7.70;99.90;;;;;;471019;252;28448;-72
2020/12/24 05:11:24;;;;;;;6.73;1.50;;;7.80;99.90;;;;;;470940;252;28417;-73
2020/12/24 05:13:25;;;;;;;11.30;2.70;;;7.80;99.90;;;;;;471126;252;28671;-73
2020/12/24 05:15:26;;;;;;;10.97;2.00;;;7.80;99.90;;;;;;471137;252;28219;-72
2020/12/24 05:17:28;;;;;;;7.03;2.00;;;7.80;99.90;;;;;;471098;252;28140;-75
2020/12/24 05:19:29;;;;;;;10.10;2.57;;;7.90;99.90;;;;;;471134;252;28157;-74
2020/12/24 05:21:30;;;;;;;10.47;3.40;;;7.80;99.90;;;;;;471088;252;28060;-73
2020/12/24 05:23:31;;;;;;;6.70;2.03;;;7.80;99.90;;;;;;471164;252;28038;-73
2020/12/24 05:25:33;;;;;;;6.03;1.73;;;7.70;99.90;;;;;;471181;252;28035;-73
2020/12/24 05:27:34;;;;;;;7.23;1.83;;;7.60;99.90;;;;;;471061;252;27904;-76
2020/12/24 05:29:35;;;;;;;8.90;1.70;;;7.70;99.90;;;;;;471000;252;28043;-72
2020/12/24 05:31:36;;;;;;;6.20;1.60;;;7.70;99.90;;;;;;471027;252;27574;-72
2020/12/24 05:33:38;;;;;;;6.60;1.47;;;7.70;99.90;;;;;;471055;252;28179;-77
2020/12/24 05:35:39;;;;;;;9.33;2.33;;;7.80;99.90;;;;;;471012;252;28117;-76
2020/12/24 05:37:40;;;;;;;5.40;1.40;;;7.80;99.90;;;;;;470923;252;28089;-73
2020/12/24 05:39:41;;;;;;;6.73;1.70;;;7.80;99.90;;;;;;470963;252;28017;-72
2020/12/24 05:41:43;;;;;;;6.80;1.73;;;7.80;99.90;;;;;;470923;252;27802;-74
2020/12/24 05:43:44;;;;;;;9.53;2.10;;;7.80;99.90;;;;;;470904;252;29021;-74
2020/12/24 05:45:45;;;;;;;6.77;1.90;;;7.70;99.90;;;;;;470937;252;28712;-72
2020/12/24 05:47:46;;;;;;;6.60;1.60;;;7.80;99.90;;;;;;470985;252;28169;-74
2020/12/24 05:49:48;;;;;;;6.40;1.67;;;7.70;99.90;;;;;;470961;252;28702;-73
2020/12/24 05:51:49;;;;;;;9.53;1.50;;;7.70;99.90;;;;;;470913;252;28655;-74
2020/12/24 05:53:50;;;;;;;7.40;2.00;;;7.60;99.90;;;;;;470926;252;27948;-73
2020/12/24 05:55:51;;;;;;;7.30;1.83;;;7.60;99.90;;;;;;470954;252;28037;-72
2020/12/24 05:57:53;;;;;;;6.90;2.20;;;7.70;99.90;;;;;;470986;252;27831;-73
2020/12/24 05:59:54;;;;;;;5.10;1.77;;;7.50;99.90;;;;;;470983;252;28066;-75
2020/12/24 06:01:56;;;;;;;12.47;2.00;;;7.50;99.90;;;;;;470941;252;27928;-73
2020/12/24 06:03:58;;;;;;;7.30;1.87;;;7.40;99.90;;;;;;470963;252;27917;-72
2020/12/24 06:05:59;;;;;;;7.90;1.67;;;7.30;99.90;;;;;;470952;249;28016;-73
2020/12/24 06:08:00;;;;;;;7.73;1.67;;;7.20;99.90;;;;;;471009;252;28305;-75
2020/12/24 06:10:01;;;;;;;6.10;1.90;;;7.20;99.90;;;;;;470924;252;29426;-73
2020/12/24 06:12:03;;;;;;;5.45;1.60;;;7.30;99.90;;;;;;470984;252;28507;-73
2020/12/24 06:14:04;;;;;;;6.10;1.63;;;7.20;99.90;;;;;;471021;252;27556;-74
2020/12/24 06:16:05;;;;;;;7.73;1.77;;;7.20;99.90;;;;;;470961;252;28091;-74
2020/12/24 06:18:06;;;;;;;9.30;1.80;;;7.20;99.90;;;;;;471012;252;28482;-76
2020/12/24 06:20:08;;;;;;;6.20;2.00;;;7.20;99.90;;;;;;470946;252;28229;-75
2020/12/24 06:22:09;;;;;;;8.57;2.43;;;7.30;99.90;;;;;;470895;252;28904;-74
2020/12/24 06:24:10;;;;;;;7.33;1.70;;;7.30;99.90;;;;;;470826;247;28027;-73
2020/12/24 06:26:12;;;;;;;6.90;1.73;;;7.30;99.90;;;;;;470912;252;27925;-72
2020/12/24 06:28:13;;;;;;;2.57;1.57;;;7.30;99.90;;;;;;470983;252;27566;-75
2020/12/24 06:30:17;;;;;;;9.37;1.80;;;7.20;99.90;;;;;;470914;252;28454;-74
2020/12/24 06:32:15;;;;;;;7.47;2.00;;;7.20;99.90;;;;;;470694;252;28050;-73
2020/12/24 06:34:16;;;;;;;10.87;2.00;;;7.20;99.90;;;;;;470962;252;29410;-75
2020/12/24 06:36:18;;;;;;;8.77;2.20;;;7.20;99.90;;;;;;470975;252;29244;-72
2020/12/24 06:38:19;;;;;;;4.57;1.57;;;7.20;99.90;;;;;;470905;252;28046;-73
2020/12/24 06:40:20;;;;;;;9.77;2.05;;;7.20;99.90;;;;;;470933;252;28243;-74
2020/12/24 06:42:21;;;;;;;10.13;2.07;;;7.10;99.90;;;;;;470989;252;27577;-73
2020/12/24 06:44:23;;;;;;;8.67;2.20;;;7.20;99.90;;;;;;470952;252;28031;-76
2020/12/24 06:46:24;;;;;;;6.60;1.63;;;7.20;99.90;;;;;;471138;252;27625;-73
2020/12/24 06:48:25;;;;;;;7.95;1.95;;;7.20;99.90;;;;;;471155;252;28050;-73
2020/12/24 06:50:26;;;;;;;7.30;1.90;;;7.20;99.90;;;;;;471139;252;27600;-72
2020/12/24 06:52:28;;;;;;;9.63;1.77;;;7.20;99.90;;;;;;470291;252;27761;-73
2020/12/24 06:54:29;;;;;;;5.93;1.50;;;7.20;99.90;;;;;;469827;252;27672;-74
2020/12/24 06:56:30;;;;;;;3.70;1.87;;;7.10;99.90;;;;;;469838;252;27665;-73
2020/12/24 06:58:32;;;;;;;5.23;1.80;;;7.10;99.90;;;;;;469834;252;28323;-73
2020/12/24 07:00:33;;;;;;;2.97;1.43;;;7.00;99.90;;;;;;469721;252;28254;-73
2020/12/24 07:02:34;;;;;;;4.00;1.63;;;6.90;99.90;;;;;;469755;252;27803;-72
2020/12/24 07:04:35;;;;;;;3.37;1.37;;;6.90;99.90;;;;;;469730;252;27933;-73
2020/12/24 07:06:37;;;;;;;2.23;1.30;;;6.90;99.90;;;;;;469733;247;28545;-75
2020/12/24 07:08:38;;;;;;;2.90;1.27;;;6.90;99.90;;;;;;470139;252;28667;-77
2020/12/24 07:10:39;;;;;;;5.23;1.50;;;6.90;99.90;;;;;;470915;252;28981;-73
2020/12/24 07:12:40;;;;;;;6.53;1.43;;;6.80;99.90;;;;;;468748;252;29312;-73
2020/12/24 07:14:42;;;;;;;3.13;1.50;;;6.70;99.90;;;;;;468432;254;28851;-74
2020/12/24 07:16:43;;;;;;;4.50;1.40;;;6.70;99.90;;;;;;468424;254;28925;-74
2020/12/24 07:18:44;;;;;;;7.82;1.48;;;6.70;99.90;;;;;;468385;254;27673;-73
2020/12/24 07:20:45;;;;;;;2.37;1.20;;;6.70;99.90;;;;;;468316;254;27701;-72
2020/12/24 07:22:47;;;;;;;5.37;1.50;;;6.70;99.90;;;;;;468410;254;27527;-72
2020/12/24 07:24:48;;;;;;;1.67;1.40;;;6.70;99.90;;;;;;468402;254;27833;-74
2020/12/24 07:26:49;;;;;;;3.13;1.30;;;6.70;99.90;;;;;;468466;254;28060;-74
2020/12/24 07:28:50;;;;;;;3.12;1.50;;;6.60;99.90;;;;;;468543;254;27802;-75
2020/12/24 07:30:52;;;;;;;3.03;1.20;;;6.70;99.90;;;;;;468391;254;28031;-75
2020/12/24 07:32:53;;;;;;;3.67;1.40;;;6.70;99.90;;;;;;469380;252;28797;-72
2020/12/24 07:34:54;;;;;;;1.90;1.25;;;6.70;99.90;;;;;;470115;247;28490;-73
2020/12/24 07:36:55;;;;;;;3.62;1.45;;;6.70;99.90;;;;;;468193;247;27520;-72
2020/12/24 07:38:57;;;;;;;4.17;1.40;;;6.70;99.90;;;;;;471004;252;27598;-73
2020/12/24 07:40:58;;;;;;;2.23;1.13;;;6.70;99.90;;;;;;470941;252;27673;-73
2020/12/24 07:42:59;;;;;;;2.25;1.30;;;6.70;99.90;;;;;;471012;252;28426;-73
2020/12/24 07:45:00;;;;;;;4.05;1.50;;;6.60;99.90;;;;;;470987;252;28008;-73
2020/12/24 07:47:02;;;;;;;1.40;1.30;;;6.50;99.90;;;;;;470916;252;28196;-73
2020/12/24 07:49:03;;;;;;;5.40;1.37;;;6.50;99.90;;;;;;470823;252;29083;-73
2020/12/24 07:51:04;;;;;;;1.70;1.40;;;6.50;99.90;;;;;;470653;252;28870;-73
2020/12/24 07:53:05;;;;;;;1.17;1.00;;;6.60;99.90;;;;;;469742;252;29416;-73
2020/12/24 07:55:07;;;;;;;2.90;1.17;;;6.60;99.90;;;;;;469730;252;28837;-74
2020/12/24 07:57:08;;;;;;;1.65;1.20;;;6.50;99.90;;;;;;469670;253;28832;-73
2020/12/24 07:59:09;;;;;;;3.10;1.08;;;6.60;99.90;;;;;;469698;252;27465;-74
2020/12/24 08:01:10;;;;;;;5.20;1.17;;;6.50;99.90;;;;;;469705;252;27430;-73
2020/12/24 08:03:12;;;;;;;2.25;1.00;;;6.50;99.90;;;;;;469699;252;27476;-73
2020/12/24 08:05:13;;;;;;;4.10;1.23;;;6.50;99.90;;;;;;470891;252;27553;-72
2020/12/24 08:07:14;;;;;;;5.90;1.20;;;6.50;99.90;;;;;;470941;252;28038;-72
2020/12/24 08:09:16;;;;;;;1.60;1.05;;;6.50;99.90;;;;;;470952;252;29529;-74
2020/12/24 08:11:17;;;;;;;2.45;1.35;;;6.60;99.90;;;;;;470484;252;27486;-72
2020/12/24 08:13:18;;;;;;;1.97;1.10;;;6.60;99.90;;;;;;469836;252;27477;-73
2020/12/24 08:15:19;;;;;;;3.12;1.15;;;6.60;99.90;;;;;;469847;252;28899;-73
2020/12/24 08:17:20;;;;;;;1.83;1.05;;;6.50;99.90;;;;;;469847;252;27592;-73
2020/12/24 08:19:22;;;;;;;2.13;1.30;;;6.50;99.90;;;;;;469859;252;27567;-74
2020/12/24 08:21:23;;;;;;;3.20;1.50;;;6.40;99.90;;;;;;469768;252;28889;-72
2020/12/24 08:23:24;;;;;;;2.30;1.20;;;6.40;99.90;;;;;;469754;252;29280;-72
2020/12/24 08:25:25;;;;;;;4.50;1.40;;;6.30;99.90;;;;;;469719;252;29358;-72
2020/12/24 08:27:27;;;;;;;3.78;1.60;;;6.30;99.90;;;;;;469654;252;29408;-71
2020/12/24 08:29:28;;;;;;;2.97;1.27;;;6.40;99.90;;;;;;469675;247;27468;-74
2020/12/24 08:31:29;;;;;;;2.35;1.40;;;6.40;99.90;;;;;;469669;252;28828;-74
2020/12/24 08:33:31;;;;;;;1.70;1.25;;;6.50;99.90;;;;;;469693;252;27544;-74
2020/12/24 08:35:32;;;;;;;3.97;1.30;;;6.50;99.90;;;;;;469699;252;27821;-72
2020/12/24 08:37:33;;;;;;;1.75;1.10;;;6.40;99.90;;;;;;469670;252;27556;-72
2020/12/24 08:39:34;;;;;;;2.65;1.20;;;6.40;99.90;;;;;;469642;252;28179;-74
2020/12/24 08:41:36;;;;;;;1.93;0.93;;;6.50;99.90;;;;;;470924;252;28030;-73
2020/12/24 08:43:37;;;;;;;1.40;1.20;;;6.40;99.90;;;;;;470889;252;28813;-74
2020/12/24 08:45:38;;;;;;;2.33;1.33;;;6.50;99.90;;;;;;470771;252;27514;-74
2020/12/24 08:47:39;;;;;;;1.73;1.63;;;6.40;99.90;;;;;;470954;252;27646;-75
2020/12/24 08:49:41;;;;;;;1.47;1.20;;;6.50;99.90;;;;;;470978;252;28029;-73
2020/12/24 08:51:42;;;;;;;3.67;1.50;;;6.40;99.90;;;;;;470847;249;28260;-73
2020/12/24 08:53:43;;;;;;;1.87;1.30;;;6.50;99.90;;;;;;470996;247;28497;-73
2020/12/24 08:55:44;;;;;;;1.20;1.10;;;6.50;99.90;;;;;;470991;249;27553;-73
2020/12/24 08:57:46;;;;;;;1.90;1.00;;;6.60;99.90;;;;;;470957;252;29040;-72
2020/12/24 08:59:47;;;;;;;1.83;1.10;;;6.60;99.90;;;;;;470958;252;28155;-72
2020/12/24 09:01:48;;;;;;;1.98;1.20;;;6.70;99.90;;;;;;470851;252;29579;-76
2020/12/24 09:03:49;;;;;;;4.57;1.27;;;6.80;99.90;;;;;;470942;252;28121;-76
2020/12/24 09:05:51;;;;;;;2.83;1.20;;;6.80;99.90;;;;;;471012;252;29513;-72
2020/12/24 09:07:52;;;;;;;2.10;1.30;;;6.80;99.90;;;;;;471047;252;27573;-73
2020/12/24 09:09:53;;;;;;;1.93;1.13;;;6.70;99.90;;;;;;470986;252;28343;-72
2020/12/24 09:11:54;;;;;;;2.97;1.07;;;6.70;99.90;;;;;;470920;252;27898;-77
2020/12/24 09:13:56;;;;;;;3.30;1.40;;;6.70;99.90;;;;;;471020;252;29376;-74
2020/12/24 09:15:57;;;;;;;1.23;1.13;;;6.80;99.90;;;;;;470952;252;29019;-72
2020/12/24 09:17:58;;;;;;;2.83;1.20;;;6.80;99.90;;;;;;470912;252;28144;-72
2020/12/24 09:19:59;;;;;;;2.43;0.90;;;6.80;99.90;;;;;;470907;252;28365;-75
2020/12/24 09:22:01;;;;;;;2.58;1.23;;;6.80;99.90;;;;;;470896;252;27813;-73
2020/12/24 09:24:02;;;;;;;1.53;0.97;;;6.80;99.90;;;;;;470969;252;28031;-74
2020/12/24 09:26:03;;;;;;;1.07;1.00;;;6.80;99.90;;;;;;470255;252;28483;-72
2020/12/24 09:28:04;;;;;;;3.13;0.90;;;6.70;99.90;;;;;;469519;252;28930;-75
2020/12/24 09:30:06;;;;;;;0.80;0.80;;;6.80;99.90;;;;;;469911;249;28200;-79
2020/12/24 09:32:07;;;;;;;3.30;1.20;;;6.90;99.90;;;;;;475106;236;28041;-81
2020/12/24 09:34:08;;;;;;;1.10;0.90;;;6.90;99.90;;;;;;483051;241;28282;-83
2020/12/24 09:36:09;;;;;;;1.23;1.13;;;6.90;99.90;;;;;;468194;244;29325;-82
2020/12/24 09:38:11;;;;;;;5.00;1.63;;;6.90;99.90;;;;;;482831;240;28809;-83
2020/12/24 09:40:12;;;;;;;3.13;1.47;;;6.90;99.90;;;;;;481825;243;27974;-83
2020/12/24 09:42:14;;;;;;;1.93;1.10;;;6.80;99.90;;;;;;471945;249;29751;-83
2020/12/24 09:44:15;;;;;;;1.10;1.00;;;6.80;99.90;;;;;;475497;245;28365;-83
2020/12/24 09:46:16;;;;;;;1.80;1.00;;;6.90;99.90;;;;;;476845;246;28806;-80
2020/12/24 09:48:18;;;;;;;1.40;1.20;;;6.90;99.90;;;;;;488151;240;28052;-83
2020/12/24 09:50:19;;;;;;;4.25;1.58;;;7.00;99.90;;;;;;488150;239;27781;-81
2020/12/24 09:52:20;;;;;;;2.00;1.10;;;7.10;99.90;;;;;;487655;243;27487;-81
2020/12/24 09:54:21;;;;;;;2.30;0.90;;;7.10;99.90;;;;;;487987;244;27977;-81
2020/12/24 09:56:23;;;;;;;1.23;1.13;;;7.10;99.90;;;;;;487697;243;28147;-81
2020/12/24 09:58:24;;;;;;;1.63;1.10;;;7.30;99.90;;;;;;487988;243;28274;-80
2020/12/24 10:00:25;;;;;;;1.93;1.10;;;7.30;99.90;;;;;;487325;239;28390;-83
2020/12/24 10:02:29;;;;;;;0.93;0.93;;;7.40;99.90;;;;;;487688;239;27568;-81
2020/12/24 10:04:31;;;;;;;3.97;1.40;;;7.40;99.90;;;;;;487298;238;27982;-83
2020/12/24 10:06:32;;;;;;;2.53;1.40;;;7.40;99.90;;;;;;487706;239;27949;-84
2020/12/24 10:10:49;;;;;;;5.37;1.30;;;7.30;99.90;;;;;;481187;247;28063;-77
2020/12/24 10:12:51;;;;;;;2.35;1.05;;;7.30;99.90;;;;;;481601;246;27637;-77
2020/12/24 10:14:53;;;;;;;1.03;0.90;;;7.40;99.90;;;;;;480135;247;27586;-78
2020/12/24 10:16:53;;;;;;;0.90;0.90;;;7.40;99.90;;;;;;477545;246;27868;-75
2020/12/24 10:18:54;;;;;;;1.20;0.97;;;7.40;99.90;;;;;;477560;249;28076;-77
2020/12/24 10:20:55;;;;;;;2.00;1.10;;;7.50;99.90;;;;;;477471;249;27982;-78
2020/12/24 10:22:57;;;;;;;2.20;1.03;;;7.70;99.90;;;;;;477586;249;28103;-79
2020/12/24 10:24:58;;;;;;;1.80;1.17;;;7.70;99.90;;;;;;477611;249;28000;-78
2020/12/24 10:26:59;;;;;;;1.80;1.10;;;7.60;99.90;;;;;;477570;249;28469;-77
2020/12/24 10:29:00;;;;;;;0.90;0.90;;;7.60;99.90;;;;;;477571;249;28443;-80
2020/12/24 10:31:02;;;;;;;0.90;0.90;;;7.60;99.90;;;;;;477545;249;28650;-78
2020/12/24 10:33:03;;;;;;;0.90;0.90;;;7.50;99.90;;;;;;477635;249;28405;-77
2020/12/24 10:35:04;;;;;;;0.93;0.93;;;7.60;99.90;;;;;;477602;249;28405;-77
2020/12/24 10:37:06;;;;;;;1.07;1.07;;;7.60;99.90;;;;;;477549;249;27553;-79
2020/12/24 10:39:09;;;;;;;1.43;1.03;;;7.60;99.90;;;;;;477579;249;28396;-76